Eurocargo Venezia — IBKS — position and weather

sailwx.info

Track history (hours):
 
Tides and Currents Weather Stations Pressure Air Temp Water Temp Dewpoint Dewpoint Depression Visibility Wind Speed Wind Dir Waves Ship Positions

Eurocargo Venezia

Last reported at 2017-Jul-22 16:29 UTC. Time now 2017-Jul-22 16:37 UTC.
Position N 44°24' E 008°53'.

Length 200 m; draft 7 m.

Type: Cargo ship. MMSI: 247297200.

Date/timePositionNaut miles runAvg speedWind from/ knotsBaromVisibWave heightAir tempDewpointWater temp
2017-Jul-22 16:29N 44°24' E 008°53'0 0.0
2017-Jul-22 15:59N 44°24' E 008°53'0 0.0
2017-Jul-22 15:29N 44°24' E 008°53'0 0.0
2017-Jul-22 14:59N 44°24' E 008°53'0 0.0
2017-Jul-22 13:59N 44°24' E 008°53'0 0.0
2017-Jul-22 13:29N 44°24' E 008°53'0 0.0
2017-Jul-22 12:56N 44°24' E 008°53'0 0.0
2017-Jul-22 12:29N 44°24' E 008°53'0 0.0
2017-Jul-22 11:59N 44°24' E 008°53'0 0.0
2017-Jul-22 11:29N 44°24' E 008°53'0 0.0
2017-Jul-22 10:59N 44°24' E 008°53'0 0.0
2017-Jul-22 10:29N 44°24' E 008°53'0 0.0
2017-Jul-22 09:59N 44°24' E 008°53'0 0.0
2017-Jul-22 09:29N 44°24' E 008°53'0 0.0
2017-Jul-22 08:59N 44°24' E 008°53'0 0.0
2017-Jul-22 08:29N 44°24' E 008°53'0 0.0
2017-Jul-22 07:59N 44°24' E 008°53'0 0.0
2017-Jul-22 07:29N 44°24' E 008°53'0 0.0
2017-Jul-22 06:59N 44°24' E 008°53'0 0.0
2017-Jul-22 06:29N 44°24' E 008°53'0 0.0
2017-Jul-22 05:59N 44°24' E 008°53'0 0.0
2017-Jul-22 05:29N 44°24' E 008°53'0 0.0
2017-Jul-22 04:59N 44°24' E 008°53'1 1.1
2017-Jul-22 04:30N 44°24' E 008°54'4 8.2
2017-Jul-22 04:00N 44°21' E 008°58'713.4
2017-Jul-22 03:30N 44°16' E 009°04'816.1
2017-Jul-22 03:01N 44°10' E 009°11'1019.8
2017-Jul-22 02:31N 44°02' E 009°20'1019.1
2017-Jul-22 02:01N 43°55' E 009°28'918.7
2017-Jul-22 01:30N 43°48' E 009°37'918.6
2017-Jul-22 01:00N 43°40' E 009°45'918.5
2017-Jul-22 00:31N 43°33' E 009°53'918.0
2017-Jul-22 00:01N 43°28' E 010°03'918.4
2017-Jul-21 23:30N 43°20' E 010°09'918.5
2017-Jul-21 23:00N 43°12' E 010°15'5418.5
2017-Jul-21 20:05N 42°26' E 010°55'2618.5
2017-Jul-21 18:41N 42°11' E 011°23'5618.6
2017-Jul-21 15:41N 41°33' E 012°18'718.7
2017-Jul-21 15:18N 41°28' E 012°25'618.6
2017-Jul-21 15:00N 41°24' E 012°30'715.0
2017-Jul-21 14:30N 41°19' E 012°38'712.7
2017-Jul-21 13:55N 41°15' E 012°46'1216.9
2017-Jul-21 13:13N 41°08' E 012°59'418.5
2017-Jul-21 13:00N 41°06' E 013°03'918.6
2017-Jul-21 12:30N 41°00' E 013°13'918.7
2017-Jul-21 12:00N 40°55' E 013°23'918.5
2017-Jul-21 11:30N 40°49' E 013°33'1018.4
2017-Jul-21 10:59N 40°41' E 013°40'918.2
2017-Jul-21 10:30N 40°34' E 013°46'918.1
2017-Jul-21 10:00N 40°27' E 013°53'918.4
2017-Jul-21 09:30N 40°19' E 014°00'918.7
2017-Jul-21 09:00N 40°12' E 014°07'918.5
2017-Jul-21 08:30N 40°04' E 014°14'918.5
2017-Jul-21 08:00N 39°56' E 014°21'918.6
2017-Jul-21 07:30N 39°49' E 014°28'3218.8
2017-Jul-21 05:49N 39°23' E 014°52'718.9
2017-Jul-21 05:25N 39°17' E 014°57'1418.9
2017-Jul-21 04:42N 39°06' E 015°08'818.9
2017-Jul-21 04:17N 38°59' E 015°13'618.8
2017-Jul-21 03:59N 38°55' E 015°18'918.8
2017-Jul-21 03:30N 38°47' E 015°24'1118.7
2017-Jul-21 02:53N 38°37' E 015°31'719.0
2017-Jul-21 02:30N 38°30' E 015°35'918.6
2017-Jul-21 02:00N 38°22' E 015°40'814.3
2017-Jul-21 01:28N 38°14' E 015°38'817.8
2017-Jul-21 01:00N 38°06' E 015°35'1418.0
2017-Jul-21 00:14N 37°54' E 015°27'63 7.0
2017-Jul-20 15:09N 36°51' E 015°22'318.8
2017-Jul-20 15:00N 36°49' E 015°20'1918.4
2017-Jul-20 14:00N 36°33' E 015°08'918.6
2017-Jul-20 13:30N 36°26' E 015°01'918.8
2017-Jul-20 13:00N 36°18' E 014°54'918.8
2017-Jul-20 12:30N 36°10' E 014°47'1019.0
2017-Jul-20 12:00N 36°03' E 014°40'1018.9
2017-Jul-20 11:30N 35°55' E 014°33'3 6.0
2017-Jul-20 11:00N 35°53' E 014°31'0 0.0
2017-Jul-20 10:24N 35°53' E 014°31'0 0.0
2017-Jul-20 09:57N 35°53' E 014°31'0 0.0
2017-Jul-20 08:36N 35°53' E 014°31'0 0.0
2017-Jul-20 08:09N 35°53' E 014°31'0 0.0
2017-Jul-20 07:54N 35°53' E 014°31'0 0.0
2017-Jul-20 07:30N 35°53' E 014°31'0 0.0
2017-Jul-20 06:54N 35°53' E 014°31'0 0.0
2017-Jul-20 06:06N 35°53' E 014°31'0 0.0
2017-Jul-20 05:54N 35°53' E 014°31'0 0.0
2017-Jul-20 05:30N 35°53' E 014°31'0 0.0
2017-Jul-20 04:21N 35°53' E 014°31'0 0.0
2017-Jul-20 04:00N 35°53' E 014°31'0 0.0
2017-Jul-20 02:43N 35°53' E 014°31'0 0.4
2017-Jul-20 02:24N 35°53' E 014°31'3 7.6
2017-Jul-20 02:00N 35°55' E 014°33'917.7
2017-Jul-20 01:30N 36°02' E 014°40'917.7
2017-Jul-20 01:00N 36°10' E 014°46'917.7
2017-Jul-20 00:30N 36°17' E 014°52'918.0
2017-Jul-20 00:00N 36°24' E 014°59'1018.2
2017-Jul-19 23:28N 36°32' E 015°06'83 5.4
2017-Jul-19 08:09N 37°54' E 015°27'1117.7
2017-Jul-19 07:33N 38°03' E 015°32'117.6
2017-Jul-19 07:29N 38°04' E 015°32'916.4
2017-Jul-19 06:57N 38°13' E 015°36'713.2
2017-Jul-19 06:27N 38°18' E 015°40'1119.2
2017-Jul-19 05:54N 38°28' E 015°35'819.3
2017-Jul-19 05:29N 38°35' E 015°30'11419.0
2017-Jul-18 23:30N 40°10' E 014°09'919.0
2017-Jul-18 23:00N 40°18' E 014°02'1019.0
2017-Jul-18 22:30N 40°26' E 013°54'1019.1
2017-Jul-18 22:00N 40°34' E 013°47'2019.2
2017-Jul-18 20:59N 40°50' E 013°32'1219.0
2017-Jul-18 20:21N 40°57' E 013°20'819.5
2017-Jul-18 19:58N 41°01' E 013°12'12719.2
2017-Jul-18 13:20N 42°23' E 011°01'2919.4
2017-Jul-18 11:49N 42°46' E 010°36'619.7
2017-Jul-18 11:30N 42°51' E 010°31'1019.4
2017-Jul-18 11:00N 43°00' E 010°25'1019.7
2017-Jul-18 10:30N 43°09' E 010°21'1019.8
2017-Jul-18 10:00N 43°19' E 010°17'1019.9
2017-Jul-18 09:30N 43°28' E 010°12'611.8
2017-Jul-18 09:00N 43°33' E 010°17'2 4.7
2017-Jul-18 08:30N 43°35' E 010°19'0 0.0
2017-Jul-18 07:54N 43°35' E 010°19'0 0.0
2017-Jul-18 07:30N 43°35' E 010°19'0 0.0
2017-Jul-18 07:00N 43°35' E 010°19'0 0.0
2017-Jul-18 06:30N 43°35' E 010°19'0 0.0
2017-Jul-18 06:00N 43°35' E 010°19'0 0.0
2017-Jul-18 05:30N 43°35' E 010°19'0 0.0
2017-Jul-18 05:00N 43°35' E 010°19'0 0.0
2017-Jul-18 04:30N 43°35' E 010°19'0 0.0
2017-Jul-18 04:00N 43°35' E 010°19'0 0.0
2017-Jul-18 03:30N 43°35' E 010°19'0 0.0
2017-Jul-18 03:00N 43°35' E 010°19'0 0.0
2017-Jul-18 02:30N 43°35' E 010°19'0 0.0
2017-Jul-18 02:00N 43°35' E 010°19'0 0.0
2017-Jul-18 01:30N 43°35' E 010°19'0 0.0
2017-Jul-18 01:00N 43°35' E 010°19'1 1.2
2017-Jul-18 00:30N 43°34' E 010°19'3 6.7
2017-Jul-18 00:00N 43°32' E 010°16'4 8.5
2017-Jul-17 23:31N 43°29' E 010°11'1019.9
2017-Jul-17 23:01N 43°32' E 009°58'1019.9
2017-Jul-17 22:31N 43°38' E 009°47'1020.6
2017-Jul-17 22:01N 43°46' E 009°38'1020.5
2017-Jul-17 21:31N 43°54' E 009°29'1020.4
2017-Jul-17 21:01N 44°02' E 009°20'1020.4
2017-Jul-17 20:31N 44°09' E 009°11'1020.5
2017-Jul-17 20:01N 44°17' E 009°01'815.6
2017-Jul-17 19:30N 44°24' E 008°55'2 2.7
2017-Jul-17 18:55N 44°24' E 008°53'0 0.0
2017-Jul-17 18:28N 44°24' E 008°53'0 0.0
2017-Jul-17 17:58N 44°24' E 008°53'0 0.0
2017-Jul-17 17:28N 44°24' E 008°53'0 0.0
2017-Jul-17 16:58N 44°24' E 008°53'0 0.0
2017-Jul-17 16:28N 44°24' E 008°53'0 0.0
2017-Jul-17 15:58N 44°24' E 008°53'0 0.0
2017-Jul-17 15:28N 44°24' E 008°53'0 0.0
2017-Jul-17 14:58N 44°24' E 008°53'0 0.0
2017-Jul-17 14:28N 44°24' E 008°53'0 0.0
2017-Jul-17 13:55N 44°24' E 008°53'0 0.0
2017-Jul-17 13:22N 44°24' E 008°53'0 0.0
2017-Jul-17 12:58N 44°24' E 008°53'0 0.0
2017-Jul-17 12:28N 44°24' E 008°53'0 0.0
2017-Jul-17 11:55N 44°24' E 008°53'0 0.0
2017-Jul-17 11:28N 44°24' E 008°53'0 0.0
2017-Jul-17 10:58N 44°24' E 008°53'0 0.0
2017-Jul-17 10:28N 44°24' E 008°53'0 0.0
2017-Jul-17 09:58N 44°24' E 008°53'0 0.0
2017-Jul-17 09:28N 44°24' E 008°53'0 0.0
2017-Jul-17 08:58N 44°24' E 008°53'0 0.0
2017-Jul-17 08:28N 44°24' E 008°53'0 0.0
2017-Jul-17 07:58N 44°24' E 008°53'0 0.0
2017-Jul-17 07:28N 44°24' E 008°53'0 0.0
2017-Jul-17 06:58N 44°24' E 008°53'0 0.0
2017-Jul-17 06:28N 44°24' E 008°53'0 0.0
2017-Jul-17 05:58N 44°24' E 008°53'1 2.7
2017-Jul-17 05:30N 44°24' E 008°55'4 7.4
2017-Jul-17 05:00N 44°21' E 008°59'510.3
2017-Jul-17 04:30N 44°17' E 009°03'815.5
2017-Jul-17 04:00N 44°11' E 009°10'917.7
2017-Jul-17 03:30N 44°04' E 009°17'918.6
2017-Jul-17 03:00N 43°57' E 009°26'918.1
2017-Jul-17 02:30N 43°50' E 009°34'917.4
2017-Jul-17 02:00N 43°43' E 009°41'918.0
2017-Jul-17 01:30N 43°36' E 009°49'918.3
2017-Jul-17 01:00N 43°30' E 009°59'918.0
2017-Jul-17 00:30N 43°23' E 010°06'918.5
2017-Jul-17 00:00N 43°15' E 010°12'918.2
2017-Jul-16 23:30N 43°07' E 010°18'918.0
2017-Jul-16 22:59N 42°59' E 010°24'32518.2
2017-Jul-16 05:07N 38°59' E 015°14'218.5
2017-Jul-16 05:00N 38°57' E 015°16'918.5
2017-Jul-16 04:30N 38°49' E 015°22'918.7
2017-Jul-16 04:00N 38°41' E 015°28'918.9
2017-Jul-16 03:30N 38°33' E 015°33'918.5
2017-Jul-16 03:00N 38°24' E 015°38'816.9
2017-Jul-16 02:30N 38°16' E 015°42'612.7
2017-Jul-16 02:00N 38°11' E 015°37'714.3
2017-Jul-16 01:30N 38°05' E 015°34'916.9
2017-Jul-16 01:00N 37°57' E 015°29'918.0
2017-Jul-16 00:30N 37°49' E 015°24'918.3
2017-Jul-16 00:00N 37°41' E 015°19'1513.4
2017-Jul-15 22:51N 37°29' E 015°06'0 0.4
2017-Jul-15 21:44N 37°29' E 015°06'69 7.9
2017-Jul-15 12:59N 36°21' E 014°56'918.8
2017-Jul-15 12:30N 36°13' E 014°49'918.8
2017-Jul-15 12:00N 36°06' E 014°42'918.8
2017-Jul-15 11:30N 35°58' E 014°35'612.4
2017-Jul-15 10:59N 35°53' E 014°31'0 0.0
2017-Jul-15 10:29N 35°53' E 014°31'0 0.0
2017-Jul-15 09:56N 35°53' E 014°31'0 0.0
2017-Jul-15 09:26N 35°53' E 014°31'0 0.0
2017-Jul-15 08:56N 35°53' E 014°31'0 0.0
2017-Jul-15 08:11N 35°53' E 014°31'0 0.0
2017-Jul-15 07:53N 35°53' E 014°31'0 0.0
2017-Jul-15 07:14N 35°53' E 014°31'0 0.0
2017-Jul-15 06:32N 35°53' E 014°31'0 0.1
2017-Jul-15 06:26N 35°53' E 014°31'0 0.0
2017-Jul-15 05:59N 35°53' E 014°31'0 0.0
2017-Jul-15 05:29N 35°53' E 014°31'0 0.0
2017-Jul-15 04:56N 35°53' E 014°31'0 0.0
2017-Jul-15 04:29N 35°53' E 014°31'0 0.0
2017-Jul-15 03:26N 35°53' E 014°31'0 0.0
2017-Jul-15 02:39N 35°53' E 014°31'0 0.0
2017-Jul-15 02:30N 35°53' E 014°31'3 6.7
2017-Jul-15 02:00N 35°56' E 014°33'1019.7
2017-Jul-15 01:30N 36°04' E 014°39'1019.2
2017-Jul-15 01:00N 36°12' E 014°46'1019.5
2017-Jul-15 00:30N 36°19' E 014°54'6417.7
2017-Jul-14 20:55N 37°21' E 015°15'11 1.6
2017-Jul-14 13:47N 37°29' E 015°06'0 0.0
2017-Jul-14 11:53N 37°29' E 015°06'10 8.3
2017-Jul-14 10:43N 37°34' E 015°16'418.3
2017-Jul-14 10:29N 37°38' E 015°18'918.1
2017-Jul-14 10:00N 37°46' E 015°23'918.3
2017-Jul-14 09:30N 37°55' E 015°27'919.2
2017-Jul-14 09:00N 38°03' E 015°32'917.1
2017-Jul-14 08:30N 38°12' E 015°36'714.3
2017-Jul-14 08:00N 38°18' E 015°40'612.1
2017-Jul-14 07:30N 38°23' E 015°37'816.9
2017-Jul-14 07:00N 38°31' E 015°33'1018.9
2017-Jul-14 06:27N 38°40' E 015°27'919.0
2017-Jul-14 06:00N 38°48' E 015°22'1118.8
2017-Jul-14 05:26N 38°57' E 015°15'28318.7
2017-Jul-13 14:15N 42°24' E 010°60'718.5
2017-Jul-13 13:52N 42°29' E 010°53'718.8
2017-Jul-13 13:30N 42°34' E 010°47'918.9
2017-Jul-13 13:00N 42°42' E 010°40'1019.3
2017-Jul-13 12:28N 42°50' E 010°32'818.2
2017-Jul-13 12:00N 42°57' E 010°25'1019.5
2017-Jul-13 11:30N 43°07' E 010°21'1019.7
2017-Jul-13 11:00N 43°16' E 010°18'1019.3
2017-Jul-13 10:30N 43°25' E 010°14'713.2
2017-Jul-13 10:00N 43°32' E 010°15'3 6.4
2017-Jul-13 09:31N 43°34' E 010°19'1 1.3
2017-Jul-13 09:00N 43°35' E 010°19'0 0.0
2017-Jul-13 08:27N 43°35' E 010°19'0 0.0
2017-Jul-13 08:00N 43°35' E 010°19'0 0.0
2017-Jul-13 07:30N 43°35' E 010°19'0 0.0
2017-Jul-13 07:00N 43°35' E 010°19'0 0.0
2017-Jul-13 06:30N 43°35' E 010°19'0 0.0
2017-Jul-13 06:00N 43°35' E 010°19'0 0.0
2017-Jul-13 05:30N 43°35' E 010°19'0 0.0
2017-Jul-13 05:00N 43°35' E 010°19'0 0.0
2017-Jul-13 04:30N 43°35' E 010°19'0 0.0
2017-Jul-13 04:00N 43°35' E 010°19'2 3.5
2017-Jul-13 03:30N 43°33' E 010°18'4 7.6
2017-Jul-13 03:00N 43°31' E 010°14'5 9.2
2017-Jul-13 02:30N 43°29' E 010°08'510.9
2017-Jul-13 02:00N 43°31' E 010°01'612.7
2017-Jul-13 01:30N 43°33' E 009°53'713.0
2017-Jul-13 01:00N 43°38' E 009°47'713.0
2017-Jul-13 00:30N 43°43' E 009°41'714.2
2017-Jul-12 23:59N 43°49' E 009°34'917.7
2017-Jul-12 23:30N 43°56' E 009°27'917.4
2017-Jul-12 23:00N 44°03' E 009°20'917.6
2017-Jul-12 22:30N 44°09' E 009°12'917.9
2017-Jul-12 22:00N 44°16' E 009°03'917.3
2017-Jul-12 21:30N 44°23' E 008°57'3 5.4
2017-Jul-12 21:01N 44°24' E 008°53'0 0.0
2017-Jul-12 20:31N 44°24' E 008°53'0 0.0
2017-Jul-12 20:01N 44°24' E 008°53'0 0.0
2017-Jul-12 19:30N 44°24' E 008°53'0 0.0
2017-Jul-12 19:01N 44°24' E 008°53'0 0.0
2017-Jul-12 18:31N 44°24' E 008°53'0 0.0
2017-Jul-12 18:01N 44°24' E 008°53'0 0.0
2017-Jul-12 17:31N 44°24' E 008°53'0 0.0
2017-Jul-12 17:01N 44°24' E 008°53'0 0.0
2017-Jul-12 16:31N 44°24' E 008°53'  
Track history (hours):
 
Tides and Currents Weather Stations Pressure Air Temp Water Temp Dewpoint Dewpoint Depression Visibility Wind Speed Wind Dir Waves Ship Positions

Eurocargo Venezia

Last reported at 2017-Jul-22 16:29 UTC. Time now 2017-Jul-22 16:37 UTC.
Position N 44°24' E 008°53'.

Length 200 m; draft 7 m.

Type: Cargo ship. MMSI: 247297200.

Date/timePositionNaut miles runAvg speedWind from/ knotsBaromVisibWave heightAir tempDewpointWater temp
2017-Jul-22 16:29N 44°24' E 008°53'0 0.0
2017-Jul-22 15:59N 44°24' E 008°53'0 0.0
2017-Jul-22 15:29N 44°24' E 008°53'0 0.0
2017-Jul-22 14:59N 44°24' E 008°53'0 0.0
2017-Jul-22 13:59N 44°24' E 008°53'0 0.0
2017-Jul-22 13:29N 44°24' E 008°53'0 0.0
2017-Jul-22 12:56N 44°24' E 008°53'0 0.0
2017-Jul-22 12:29N 44°24' E 008°53'0 0.0
2017-Jul-22 11:59N 44°24' E 008°53'0 0.0
2017-Jul-22 11:29N 44°24' E 008°53'0 0.0
2017-Jul-22 10:59N 44°24' E 008°53'0 0.0
2017-Jul-22 10:29N 44°24' E 008°53'0 0.0
2017-Jul-22 09:59N 44°24' E 008°53'0 0.0
2017-Jul-22 09:29N 44°24' E 008°53'0 0.0
2017-Jul-22 08:59N 44°24' E 008°53'0 0.0
2017-Jul-22 08:29N 44°24' E 008°53'0 0.0
2017-Jul-22 07:59N 44°24' E 008°53'0 0.0
2017-Jul-22 07:29N 44°24' E 008°53'0 0.0
2017-Jul-22 06:59N 44°24' E 008°53'0 0.0
2017-Jul-22 06:29N 44°24' E 008°53'0 0.0
2017-Jul-22 05:59N 44°24' E 008°53'0 0.0
2017-Jul-22 05:29N 44°24' E 008°53'0 0.0
2017-Jul-22 04:59N 44°24' E 008°53'1 1.1
2017-Jul-22 04:30N 44°24' E 008°54'4 8.2
2017-Jul-22 04:00N 44°21' E 008°58'713.4
2017-Jul-22 03:30N 44°16' E 009°04'816.1
2017-Jul-22 03:01N 44°10' E 009°11'1019.8
2017-Jul-22 02:31N 44°02' E 009°20'1019.1
2017-Jul-22 02:01N 43°55' E 009°28'918.7
2017-Jul-22 01:30N 43°48' E 009°37'918.6
2017-Jul-22 01:00N 43°40' E 009°45'918.5
2017-Jul-22 00:31N 43°33' E 009°53'918.0
2017-Jul-22 00:01N 43°28' E 010°03'918.4
2017-Jul-21 23:30N 43°20' E 010°09'918.5
2017-Jul-21 23:00N 43°12' E 010°15'5418.5
2017-Jul-21 20:05N 42°26' E 010°55'2618.5
2017-Jul-21 18:41N 42°11' E 011°23'5618.6
2017-Jul-21 15:41N 41°33' E 012°18'718.7
2017-Jul-21 15:18N 41°28' E 012°25'618.6
2017-Jul-21 15:00N 41°24' E 012°30'715.0
2017-Jul-21 14:30N 41°19' E 012°38'712.7
2017-Jul-21 13:55N 41°15' E 012°46'1216.9
2017-Jul-21 13:13N 41°08' E 012°59'418.5
2017-Jul-21 13:00N 41°06' E 013°03'918.6
2017-Jul-21 12:30N 41°00' E 013°13'918.7
2017-Jul-21 12:00N 40°55' E 013°23'918.5
2017-Jul-21 11:30N 40°49' E 013°33'1018.4
2017-Jul-21 10:59N 40°41' E 013°40'918.2
2017-Jul-21 10:30N 40°34' E 013°46'918.1
2017-Jul-21 10:00N 40°27' E 013°53'918.4
2017-Jul-21 09:30N 40°19' E 014°00'918.7
2017-Jul-21 09:00N 40°12' E 014°07'918.5
2017-Jul-21 08:30N 40°04' E 014°14'918.5
2017-Jul-21 08:00N 39°56' E 014°21'918.6
2017-Jul-21 07:30N 39°49' E 014°28'3218.8
2017-Jul-21 05:49N 39°23' E 014°52'718.9
2017-Jul-21 05:25N 39°17' E 014°57'1418.9
2017-Jul-21 04:42N 39°06' E 015°08'818.9
2017-Jul-21 04:17N 38°59' E 015°13'618.8
2017-Jul-21 03:59N 38°55' E 015°18'918.8
2017-Jul-21 03:30N 38°47' E 015°24'1118.7
2017-Jul-21 02:53N 38°37' E 015°31'719.0
2017-Jul-21 02:30N 38°30' E 015°35'918.6
2017-Jul-21 02:00N 38°22' E 015°40'814.3
2017-Jul-21 01:28N 38°14' E 015°38'817.8
2017-Jul-21 01:00N 38°06' E 015°35'1418.0
2017-Jul-21 00:14N 37°54' E 015°27'63 7.0
2017-Jul-20 15:09N 36°51' E 015°22'318.8
2017-Jul-20 15:00N 36°49' E 015°20'1918.4
2017-Jul-20 14:00N 36°33' E 015°08'918.6
2017-Jul-20 13:30N 36°26' E 015°01'918.8
2017-Jul-20 13:00N 36°18' E 014°54'918.8
2017-Jul-20 12:30N 36°10' E 014°47'1019.0
2017-Jul-20 12:00N 36°03' E 014°40'1018.9
2017-Jul-20 11:30N 35°55' E 014°33'3 6.0
2017-Jul-20 11:00N 35°53' E 014°31'0 0.0
2017-Jul-20 10:24N 35°53' E 014°31'0 0.0
2017-Jul-20 09:57N 35°53' E 014°31'0 0.0
2017-Jul-20 08:36N 35°53' E 014°31'0 0.0
2017-Jul-20 08:09N 35°53' E 014°31'0 0.0
2017-Jul-20 07:54N 35°53' E 014°31'0 0.0
2017-Jul-20 07:30N 35°53' E 014°31'0 0.0
2017-Jul-20 06:54N 35°53' E 014°31'0 0.0
2017-Jul-20 06:06N 35°53' E 014°31'0 0.0
2017-Jul-20 05:54N 35°53' E 014°31'0 0.0
2017-Jul-20 05:30N 35°53' E 014°31'0 0.0
2017-Jul-20 04:21N 35°53' E 014°31'0 0.0
2017-Jul-20 04:00N 35°53' E 014°31'0 0.0
2017-Jul-20 02:43N 35°53' E 014°31'0 0.4
2017-Jul-20 02:24N 35°53' E 014°31'3 7.6
2017-Jul-20 02:00N 35°55' E 014°33'917.7
2017-Jul-20 01:30N 36°02' E 014°40'917.7
2017-Jul-20 01:00N 36°10' E 014°46'917.7
2017-Jul-20 00:30N 36°17' E 014°52'918.0
2017-Jul-20 00:00N 36°24' E 014°59'1018.2
2017-Jul-19 23:28N 36°32' E 015°06'83 5.4
2017-Jul-19 08:09N 37°54' E 015°27'1117.7
2017-Jul-19 07:33N 38°03' E 015°32'117.6
2017-Jul-19 07:29N 38°04' E 015°32'916.4
2017-Jul-19 06:57N 38°13' E 015°36'713.2
2017-Jul-19 06:27N 38°18' E 015°40'1119.2
2017-Jul-19 05:54N 38°28' E 015°35'819.3
2017-Jul-19 05:29N 38°35' E 015°30'11419.0
2017-Jul-18 23:30N 40°10' E 014°09'919.0
2017-Jul-18 23:00N 40°18' E 014°02'1019.0
2017-Jul-18 22:30N 40°26' E 013°54'1019.1
2017-Jul-18 22:00N 40°34' E 013°47'2019.2
2017-Jul-18 20:59N 40°50' E 013°32'1219.0
2017-Jul-18 20:21N 40°57' E 013°20'819.5
2017-Jul-18 19:58N 41°01' E 013°12'12719.2
2017-Jul-18 13:20N 42°23' E 011°01'2919.4
2017-Jul-18 11:49N 42°46' E 010°36'619.7
2017-Jul-18 11:30N 42°51' E 010°31'1019.4
2017-Jul-18 11:00N 43°00' E 010°25'1019.7
2017-Jul-18 10:30N 43°09' E 010°21'1019.8
2017-Jul-18 10:00N 43°19' E 010°17'1019.9
2017-Jul-18 09:30N 43°28' E 010°12'611.8
2017-Jul-18 09:00N 43°33' E 010°17'2 4.7
2017-Jul-18 08:30N 43°35' E 010°19'0 0.0
2017-Jul-18 07:54N 43°35' E 010°19'0 0.0
2017-Jul-18 07:30N 43°35' E 010°19'0 0.0
2017-Jul-18 07:00N 43°35' E 010°19'0 0.0
2017-Jul-18 06:30N 43°35' E 010°19'0 0.0
2017-Jul-18 06:00N 43°35' E 010°19'0 0.0
2017-Jul-18 05:30N 43°35' E 010°19'0 0.0
2017-Jul-18 05:00N 43°35' E 010°19'0 0.0
2017-Jul-18 04:30N 43°35' E 010°19'0 0.0
2017-Jul-18 04:00N 43°35' E 010°19'0 0.0
2017-Jul-18 03:30N 43°35' E 010°19'0 0.0
2017-Jul-18 03:00N 43°35' E 010°19'0 0.0
2017-Jul-18 02:30N 43°35' E 010°19'0 0.0
2017-Jul-18 02:00N 43°35' E 010°19'0 0.0
2017-Jul-18 01:30N 43°35' E 010°19'0 0.0
2017-Jul-18 01:00N 43°35' E 010°19'1 1.2
2017-Jul-18 00:30N 43°34' E 010°19'3 6.7
2017-Jul-18 00:00N 43°32' E 010°16'4 8.5
2017-Jul-17 23:31N 43°29' E 010°11'1019.9
2017-Jul-17 23:01N 43°32' E 009°58'1019.9
2017-Jul-17 22:31N 43°38' E 009°47'1020.6
2017-Jul-17 22:01N 43°46' E 009°38'1020.5
2017-Jul-17 21:31N 43°54' E 009°29'1020.4
2017-Jul-17 21:01N 44°02' E 009°20'1020.4
2017-Jul-17 20:31N 44°09' E 009°11'1020.5
2017-Jul-17 20:01N 44°17' E 009°01'815.6
2017-Jul-17 19:30N 44°24' E 008°55'2 2.7
2017-Jul-17 18:55N 44°24' E 008°53'0 0.0
2017-Jul-17 18:28N 44°24' E 008°53'0 0.0
2017-Jul-17 17:58N 44°24' E 008°53'0 0.0
2017-Jul-17 17:28N 44°24' E 008°53'0 0.0
2017-Jul-17 16:58N 44°24' E 008°53'0 0.0
2017-Jul-17 16:28N 44°24' E 008°53'0 0.0
2017-Jul-17 15:58N 44°24' E 008°53'0 0.0
2017-Jul-17 15:28N 44°24' E 008°53'0 0.0
2017-Jul-17 14:58N 44°24' E 008°53'0 0.0
2017-Jul-17 14:28N 44°24' E 008°53'0 0.0
2017-Jul-17 13:55N 44°24' E 008°53'0 0.0
2017-Jul-17 13:22N 44°24' E 008°53'0 0.0
2017-Jul-17 12:58N 44°24' E 008°53'0 0.0
2017-Jul-17 12:28N 44°24' E 008°53'0 0.0
2017-Jul-17 11:55N 44°24' E 008°53'0 0.0
2017-Jul-17 11:28N 44°24' E 008°53'0 0.0
2017-Jul-17 10:58N 44°24' E 008°53'0 0.0
2017-Jul-17 10:28N 44°24' E 008°53'0 0.0
2017-Jul-17 09:58N 44°24' E 008°53'0 0.0
2017-Jul-17 09:28N 44°24' E 008°53'0 0.0
2017-Jul-17 08:58N 44°24' E 008°53'0 0.0
2017-Jul-17 08:28N 44°24' E 008°53'0 0.0
2017-Jul-17 07:58N 44°24' E 008°53'0 0.0
2017-Jul-17 07:28N 44°24' E 008°53'0 0.0
2017-Jul-17 06:58N 44°24' E 008°53'0 0.0
2017-Jul-17 06:28N 44°24' E 008°53'0 0.0
2017-Jul-17 05:58N 44°24' E 008°53'1 2.7
2017-Jul-17 05:30N 44°24' E 008°55'4 7.4
2017-Jul-17 05:00N 44°21' E 008°59'510.3
2017-Jul-17 04:30N 44°17' E 009°03'815.5
2017-Jul-17 04:00N 44°11' E 009°10'917.7
2017-Jul-17 03:30N 44°04' E 009°17'918.6
2017-Jul-17 03:00N 43°57' E 009°26'918.1
2017-Jul-17 02:30N 43°50' E 009°34'917.4
2017-Jul-17 02:00N 43°43' E 009°41'918.0
2017-Jul-17 01:30N 43°36' E 009°49'918.3
2017-Jul-17 01:00N 43°30' E 009°59'918.0
2017-Jul-17 00:30N 43°23' E 010°06'918.5
2017-Jul-17 00:00N 43°15' E 010°12'918.2
2017-Jul-16 23:30N 43°07' E 010°18'918.0
2017-Jul-16 22:59N 42°59' E 010°24'32518.2
2017-Jul-16 05:07N 38°59' E 015°14'218.5
2017-Jul-16 05:00N 38°57' E 015°16'918.5
2017-Jul-16 04:30N 38°49' E 015°22'918.7
2017-Jul-16 04:00N 38°41' E 015°28'918.9
2017-Jul-16 03:30N 38°33' E 015°33'918.5
2017-Jul-16 03:00N 38°24' E 015°38'816.9
2017-Jul-16 02:30N 38°16' E 015°42'612.7
2017-Jul-16 02:00N 38°11' E 015°37'714.3
2017-Jul-16 01:30N 38°05' E 015°34'916.9
2017-Jul-16 01:00N 37°57' E 015°29'918.0
2017-Jul-16 00:30N 37°49' E 015°24'918.3
2017-Jul-16 00:00N 37°41' E 015°19'1513.4
2017-Jul-15 22:51N 37°29' E 015°06'0 0.4
2017-Jul-15 21:44N 37°29' E 015°06'69 7.9
2017-Jul-15 12:59N 36°21' E 014°56'918.8
2017-Jul-15 12:30N 36°13' E 014°49'918.8
2017-Jul-15 12:00N 36°06' E 014°42'918.8
2017-Jul-15 11:30N 35°58' E 014°35'612.4
2017-Jul-15 10:59N 35°53' E 014°31'0 0.0
2017-Jul-15 10:29N 35°53' E 014°31'0 0.0
2017-Jul-15 09:56N 35°53' E 014°31'0 0.0
2017-Jul-15 09:26N 35°53' E 014°31'0 0.0
2017-Jul-15 08:56N 35°53' E 014°31'0 0.0
2017-Jul-15 08:11N 35°53' E 014°31'0 0.0
2017-Jul-15 07:53N 35°53' E 014°31'0 0.0
2017-Jul-15 07:14N 35°53' E 014°31'0 0.0
2017-Jul-15 06:32N 35°53' E 014°31'0 0.1
2017-Jul-15 06:26N 35°53' E 014°31'0 0.0
2017-Jul-15 05:59N 35°53' E 014°31'0 0.0
2017-Jul-15 05:29N 35°53' E 014°31'0 0.0
2017-Jul-15 04:56N 35°53' E 014°31'0 0.0
2017-Jul-15 04:29N 35°53' E 014°31'0 0.0
2017-Jul-15 03:26N 35°53' E 014°31'0 0.0
2017-Jul-15 02:39N 35°53' E 014°31'0 0.0
2017-Jul-15 02:30N 35°53' E 014°31'3 6.7
2017-Jul-15 02:00N 35°56' E 014°33'1019.7
2017-Jul-15 01:30N 36°04' E 014°39'1019.2
2017-Jul-15 01:00N 36°12' E 014°46'1019.5
2017-Jul-15 00:30N 36°19' E 014°54'6417.7
2017-Jul-14 20:55N 37°21' E 015°15'11 1.6
2017-Jul-14 13:47N 37°29' E 015°06'0 0.0
2017-Jul-14 11:53N 37°29' E 015°06'10 8.3
2017-Jul-14 10:43N 37°34' E 015°16'418.3
2017-Jul-14 10:29N 37°38' E 015°18'918.1
2017-Jul-14 10:00N 37°46' E 015°23'918.3
2017-Jul-14 09:30N 37°55' E 015°27'919.2
2017-Jul-14 09:00N 38°03' E 015°32'917.1
2017-Jul-14 08:30N 38°12' E 015°36'714.3
2017-Jul-14 08:00N 38°18' E 015°40'612.1
2017-Jul-14 07:30N 38°23' E 015°37'816.9
2017-Jul-14 07:00N 38°31' E 015°33'1018.9
2017-Jul-14 06:27N 38°40' E 015°27'919.0
2017-Jul-14 06:00N 38°48' E 015°22'1118.8
2017-Jul-14 05:26N 38°57' E 015°15'28318.7
2017-Jul-13 14:15N 42°24' E 010°60'718.5
2017-Jul-13 13:52N 42°29' E 010°53'718.8
2017-Jul-13 13:30N 42°34' E 010°47'918.9
2017-Jul-13 13:00N 42°42' E 010°40'1019.3
2017-Jul-13 12:28N 42°50' E 010°32'818.2
2017-Jul-13 12:00N 42°57' E 010°25'1019.5
2017-Jul-13 11:30N 43°07' E 010°21'1019.7
2017-Jul-13 11:00N 43°16' E 010°18'1019.3
2017-Jul-13 10:30N 43°25' E 010°14'713.2
2017-Jul-13 10:00N 43°32' E 010°15'3 6.4
2017-Jul-13 09:31N 43°34' E 010°19'1 1.3
2017-Jul-13 09:00N 43°35' E 010°19'0 0.0
2017-Jul-13 08:27N 43°35' E 010°19'0 0.0
2017-Jul-13 08:00N 43°35' E 010°19'0 0.0
2017-Jul-13 07:30N 43°35' E 010°19'0 0.0
2017-Jul-13 07:00N 43°35' E 010°19'0 0.0
2017-Jul-13 06:30N 43°35' E 010°19'0 0.0
2017-Jul-13 06:00N 43°35' E 010°19'0 0.0
2017-Jul-13 05:30N 43°35' E 010°19'0 0.0
2017-Jul-13 05:00N 43°35' E 010°19'0 0.0
2017-Jul-13 04:30N 43°35' E 010°19'0 0.0
2017-Jul-13 04:00N 43°35' E 010°19'2 3.5
2017-Jul-13 03:30N 43°33' E 010°18'4 7.6
2017-Jul-13 03:00N 43°31' E 010°14'5 9.2
2017-Jul-13 02:30N 43°29' E 010°08'510.9
2017-Jul-13 02:00N 43°31' E 010°01'612.7
2017-Jul-13 01:30N 43°33' E 009°53'713.0
2017-Jul-13 01:00N 43°38' E 009°47'713.0
2017-Jul-13 00:30N 43°43' E 009°41'714.2
2017-Jul-12 23:59N 43°49' E 009°34'917.7
2017-Jul-12 23:30N 43°56' E 009°27'917.4
2017-Jul-12 23:00N 44°03' E 009°20'917.6
2017-Jul-12 22:30N 44°09' E 009°12'917.9
2017-Jul-12 22:00N 44°16' E 009°03'917.3
2017-Jul-12 21:30N 44°23' E 008°57'3 5.4
2017-Jul-12 21:01N 44°24' E 008°53'0 0.0
2017-Jul-12 20:31N 44°24' E 008°53'0 0.0
2017-Jul-12 20:01N 44°24' E 008°53'0 0.0
2017-Jul-12 19:30N 44°24' E 008°53'0 0.0
2017-Jul-12 19:01N 44°24' E 008°53'0 0.0
2017-Jul-12 18:31N 44°24' E 008°53'0 0.0
2017-Jul-12 18:01N 44°24' E 008°53'0 0.0
2017-Jul-12 17:31N 44°24' E 008°53'0 0.0
2017-Jul-12 17:01N 44°24' E 008°53'0 0.0
2017-Jul-12 16:31N 44°24' E 008°53'  

Dump ship's entire track history